Terminal Aerodrome Forecast
Issued by NWS Wichita, KS

Home | Current Version | Previous Version | Graphics & Text | Print | Product List | Glossary Off
Versions: 1 2 3 4 5 6 7 8 9 10 11 12 13 14 15 16 17 18 19 20 21 22 23 24 25 26 27 28 29

000
FTUS43 KICT 271131
TAFICT
TAF
KICT 271131Z 2712/2812 13009KT P6SM SCT015 BKN090
      TEMPO 2712/2715 BKN015
     FM271500 15013KT P6SM BKN020
     FM271800 16015G22KT P6SM VCTS BKN030CB=

USA.gov is the U.S. government's official web portal to all federal, state and local government web resources and services.